createdAt,value
2023-05-14T00:01:18.339Z,7.18
2023-05-14T00:03:45.030Z,7.40
2023-05-14T00:06:11.569Z,7.22
2023-05-14T00:08:37.976Z,7.82
2023-05-14T00:11:04.738Z,6.63
2023-05-14T00:13:31.122Z,7.30
2023-05-14T00:15:57.620Z,7.07
2023-05-14T00:18:24.260Z,6.53
2023-05-14T00:20:54.603Z,7.57
2023-05-14T00:23:22.039Z,6.87
2023-05-14T00:25:48.843Z,7.63
2023-05-14T00:28:15.339Z,7.13
2023-05-14T00:30:42.092Z,8.38
2023-05-14T00:33:08.753Z,7.35
2023-05-14T00:35:35.919Z,7.10
2023-05-14T00:38:03.349Z,8.85
2023-05-14T00:40:30.249Z,7.03
2023-05-14T00:42:56.827Z,6.95
2023-05-14T00:45:23.404Z,6.65
2023-05-14T00:47:50.510Z,6.43
2023-05-14T00:50:18.160Z,6.40
2023-05-14T00:52:44.759Z,6.70
2023-05-14T00:55:16.364Z,6.65
2023-05-14T00:57:43.513Z,7.35
2023-05-14T01:00:10.660Z,6.13
2023-05-14T01:02:37.307Z,6.93
2023-05-14T01:05:04.469Z,6.50
2023-05-14T01:07:46.948Z,6.88
2023-05-14T01:10:45.901Z,6.70
2023-05-14T01:13:39.401Z,7.03
2023-05-14T01:16:12.119Z,6.53
2023-05-14T01:18:40.884Z,6.20
2023-05-14T01:21:33.115Z,6.40
2023-05-14T01:23:59.592Z,6.13
2023-05-14T01:26:26.223Z,6.10
2023-05-14T01:28:56.295Z,6.95
2023-05-14T01:31:28.008Z,6.70
2023-05-14T01:33:56.913Z,6.13
2023-05-14T01:36:23.630Z,7.35
2023-05-14T01:38:51.472Z,6.33
2023-05-14T01:41:19.432Z,6.25
2023-05-14T01:43:46.002Z,7.03
2023-05-14T01:46:12.407Z,6.82
2023-05-14T01:48:38.912Z,6.82
2023-05-14T01:51:05.468Z,6.63
2023-05-14T01:53:34.320Z,6.82
2023-05-14T01:56:01.291Z,6.50
2023-05-14T01:58:27.836Z,6.43
2023-05-14T02:00:54.239Z,7.20
2023-05-14T02:03:20.854Z,6.57
2023-05-14T02:05:47.409Z,6.68
2023-05-14T02:08:13.825Z,7.15
2023-05-14T02:10:40.418Z,7.03
2023-05-14T02:13:07.070Z,7.03
2023-05-14T02:15:33.459Z,6.70
2023-05-14T02:17:59.889Z,6.22
2023-05-14T02:20:26.372Z,6.50
2023-05-14T02:22:52.803Z,7.13
2023-05-14T02:25:19.215Z,7.25
2023-05-14T02:27:46.216Z,6.83
2023-05-14T02:30:12.982Z,6.68
2023-05-14T02:32:39.492Z,6.97
2023-05-14T02:35:06.716Z,6.57
2023-05-14T02:37:34.754Z,6.43
2023-05-14T02:40:01.470Z,7.10
2023-05-14T02:42:28.135Z,6.63
2023-05-14T02:44:54.652Z,6.50
2023-05-14T02:47:21.307Z,6.32
2023-05-14T02:49:47.820Z,6.35
2023-05-14T02:52:14.343Z,6.93
2023-05-14T02:54:40.841Z,6.78
2023-05-14T02:57:07.309Z,6.50
2023-05-14T02:59:34.239Z,6.57
2023-05-14T03:02:01.111Z,6.72
2023-05-14T03:04:28.006Z,6.90
2023-05-14T03:06:54.432Z,6.55
2023-05-14T03:09:21.042Z,6.68
2023-05-14T03:11:47.518Z,6.50
2023-05-14T03:14:13.877Z,7.72
2023-05-14T03:16:42.289Z,6.77
2023-05-14T03:19:09.862Z,6.28
2023-05-14T03:21:36.677Z,6.53
2023-05-14T03:24:03.291Z,7.47
2023-05-14T03:26:29.712Z,6.80
2023-05-14T03:28:56.063Z,6.83
2023-05-14T03:31:22.805Z,6.80
2023-05-14T03:33:49.429Z,8.35
2023-05-14T03:36:15.934Z,6.57
2023-05-14T03:38:42.360Z,7.22
2023-05-14T03:41:08.946Z,6.87
2023-05-14T03:43:35.568Z,7.00
2023-05-14T03:46:02.053Z,7.45
2023-05-14T03:48:28.823Z,6.97
2023-05-14T03:50:55.468Z,6.97
2023-05-14T03:53:22.021Z,6.63
2023-05-14T03:55:48.549Z,6.70
2023-05-14T03:58:14.998Z,6.90
2023-05-14T04:00:42.536Z,6.15
2023-05-14T04:03:09.654Z,6.63
2023-05-14T04:05:36.298Z,6.63
2023-05-14T04:08:02.905Z,6.50
2023-05-14T04:10:29.855Z,6.38
2023-05-14T04:12:56.494Z,6.55
2023-05-14T04:15:23.196Z,6.40
2023-05-14T04:17:49.706Z,5.93
2023-05-14T04:20:16.287Z,5.93
2023-05-14T04:22:42.718Z,6.00
2023-05-14T04:25:09.357Z,6.50
2023-05-14T04:27:35.715Z,6.35
2023-05-14T04:30:02.303Z,6.30
2023-05-14T04:32:30.189Z,6.22
2023-05-14T04:34:56.932Z,6.28
2023-05-14T04:37:23.621Z,6.30
2023-05-14T04:39:50.179Z,5.82
2023-05-14T04:42:16.781Z,6.23
2023-05-14T04:44:43.183Z,6.10
2023-05-14T04:47:09.622Z,4.97
2023-05-14T04:49:36.208Z,6.28
2023-05-14T04:52:02.855Z,5.90
2023-05-14T04:54:29.382Z,5.37
2023-05-14T04:56:56.011Z,5.53
2023-05-14T04:59:22.770Z,5.68
2023-05-14T05:01:49.380Z,5.70
2023-05-14T05:04:16.208Z,5.32
2023-05-14T05:06:42.819Z,5.43
2023-05-14T05:09:09.918Z,5.28
2023-05-14T05:11:36.402Z,5.85
2023-05-14T05:14:03.006Z,5.63
2023-05-14T05:16:29.432Z,5.82
2023-05-14T05:18:56.142Z,5.40
2023-05-14T05:21:22.762Z,6.03
2023-05-14T05:23:49.144Z,5.68
2023-05-14T05:26:15.787Z,5.60
2023-05-14T05:28:42.185Z,4.88
2023-05-14T05:31:08.945Z,5.10
2023-05-14T05:33:35.961Z,5.88
2023-05-14T05:36:02.851Z,4.97
2023-05-14T05:38:29.497Z,4.82
2023-05-14T05:40:56.157Z,4.78
2023-05-14T05:43:22.797Z,4.70
2023-05-14T05:45:49.227Z,5.35
2023-05-14T05:48:15.691Z,4.72
2023-05-14T05:50:44.509Z,4.75
2023-05-14T05:53:11.185Z,5.10
2023-05-14T05:55:37.798Z,5.10
2023-05-14T05:58:04.628Z,4.82
2023-05-14T06:00:31.467Z,5.45
2023-05-14T06:02:58.088Z,5.63
2023-05-14T06:05:24.639Z,5.00
2023-05-14T06:07:51.259Z,6.17
2023-05-14T06:10:17.671Z,5.05
2023-05-14T06:12:44.104Z,5.55
2023-05-14T06:15:12.276Z,4.60
2023-05-14T06:17:39.264Z,5.28
2023-05-14T06:20:07.833Z,4.70
2023-05-14T06:22:34.774Z,5.32
2023-05-14T06:25:01.148Z,4.90
2023-05-14T06:27:27.664Z,4.82
2023-05-14T06:29:54.089Z,5.63
2023-05-14T06:32:20.689Z,5.07
2023-05-14T06:34:47.641Z,4.90
2023-05-14T06:37:14.285Z,5.28
2023-05-14T06:39:44.127Z,4.72
2023-05-14T06:42:10.699Z,4.20
2023-05-14T06:44:37.064Z,4.90
2023-05-14T06:47:03.648Z,4.50
2023-05-14T06:49:30.279Z,4.10
2023-05-14T06:51:56.757Z,4.50
2023-05-14T06:54:23.158Z,4.57
2023-05-14T06:56:49.755Z,4.20
2023-05-14T06:59:16.145Z,4.38
2023-05-14T07:01:42.904Z,5.07
2023-05-14T07:04:09.454Z,4.15
2023-05-14T07:06:35.981Z,4.47
2023-05-14T07:09:03.383Z,4.10
2023-05-14T07:11:30.198Z,4.55
2023-05-14T07:13:56.634Z,4.40
2023-05-14T07:16:30.454Z,4.43
2023-05-14T07:18:56.905Z,3.95
2023-05-14T07:21:23.348Z,4.77
2023-05-14T07:23:49.937Z,4.13
2023-05-14T07:26:16.329Z,4.10
2023-05-14T07:28:42.832Z,4.28
2023-05-14T07:31:09.561Z,4.15
2023-05-14T07:33:36.576Z,4.33
2023-05-14T07:36:03.170Z,4.05
2023-05-14T07:38:29.777Z,4.00
2023-05-14T07:40:56.291Z,4.07
2023-05-14T07:43:22.878Z,4.18
2023-05-14T07:45:49.465Z,4.47
2023-05-14T07:48:16.076Z,4.70
2023-05-14T07:50:42.532Z,4.90
2023-05-14T07:53:09.030Z,4.60
2023-05-14T07:55:35.489Z,5.25
2023-05-14T07:58:02.085Z,5.20
2023-05-14T08:00:28.659Z,5.40
2023-05-14T08:02:55.731Z,4.60
2023-05-14T08:05:22.464Z,5.15
2023-05-14T08:07:48.908Z,4.72
2023-05-14T08:10:15.336Z,4.63
2023-05-14T08:12:42.715Z,4.25
2023-05-14T08:15:09.837Z,4.50
2023-05-14T08:17:36.482Z,5.00
2023-05-14T08:20:03.226Z,5.43
2023-05-14T08:22:29.739Z,4.17
2023-05-14T08:24:56.115Z,4.32
2023-05-14T08:27:23.120Z,4.50
2023-05-14T08:29:49.556Z,4.57
2023-05-14T08:32:23.439Z,4.07
2023-05-14T08:34:51.534Z,4.63
2023-05-14T08:37:18.453Z,4.32
2023-05-14T08:39:46.529Z,4.40
2023-05-14T08:42:13.752Z,4.60
2023-05-14T08:44:51.971Z,4.50
2023-05-14T08:47:21.575Z,4.17
2023-05-14T08:49:54.962Z,3.90
2023-05-14T08:52:23.086Z,4.10
2023-05-14T08:54:51.161Z,4.00
2023-05-14T08:57:18.894Z,3.83
2023-05-14T08:59:45.308Z,4.00
2023-05-14T09:02:15.108Z,4.10
2023-05-14T09:04:42.516Z,3.83
2023-05-14T09:07:09.327Z,3.90
2023-05-14T09:09:36.622Z,4.25
2023-05-14T09:12:03.318Z,3.80
2023-05-14T09:14:29.880Z,3.42
2023-05-14T09:16:57.040Z,4.22
2023-05-14T09:19:23.973Z,3.47
2023-05-14T09:21:50.544Z,3.97
2023-05-14T09:24:21.412Z,4.07
2023-05-14T09:26:51.129Z,3.53
2023-05-14T09:29:17.870Z,3.22
2023-05-14T09:31:44.790Z,3.70
2023-05-14T09:34:11.530Z,4.03
2023-05-14T09:36:38.345Z,3.37
2023-05-14T09:39:04.908Z,3.35
2023-05-14T09:41:31.491Z,3.10
2023-05-14T09:43:58.007Z,3.63
2023-05-14T09:46:27.342Z,3.63
2023-05-14T09:48:56.027Z,3.57
2023-05-14T09:51:22.745Z,4.57
2023-05-14T09:53:52.555Z,4.20
2023-05-14T09:56:19.184Z,4.15
2023-05-14T09:58:45.733Z,3.78
2023-05-14T10:01:13.165Z,3.70
2023-05-14T10:03:39.821Z,3.78
2023-05-14T10:06:06.930Z,3.60
2023-05-14T10:08:35.885Z,3.55
2023-05-14T10:11:08.405Z,3.53
2023-05-14T10:13:41.699Z,3.80
2023-05-14T10:16:15.619Z,3.42
2023-05-14T10:18:46.740Z,4.05
2023-05-14T10:21:14.706Z,4.03
2023-05-14T10:23:41.673Z,3.88
2023-05-14T10:26:09.397Z,4.03
2023-05-14T10:28:36.830Z,3.28
2023-05-14T10:31:03.552Z,3.60
2023-05-14T10:33:30.133Z,3.40
2023-05-14T10:35:57.732Z,3.47
2023-05-14T10:38:34.030Z,3.27
2023-05-14T10:41:11.710Z,3.50
2023-05-14T10:43:39.873Z,3.60
2023-05-14T10:46:08.094Z,4.07
2023-05-14T10:48:36.586Z,3.95
2023-05-14T10:51:03.237Z,3.43
2023-05-14T10:53:43.672Z,3.83
2023-05-14T10:56:14.289Z,3.35
2023-05-14T10:58:42.944Z,3.70
2023-05-14T11:01:11.686Z,3.42
2023-05-14T11:03:42.978Z,3.30
2023-05-14T11:06:11.457Z,3.55
2023-05-14T11:08:38.975Z,4.07
2023-05-14T11:11:06.262Z,3.72
2023-05-14T11:13:34.419Z,3.55
2023-05-14T11:16:15.089Z,3.53
2023-05-14T11:18:48.160Z,3.60
2023-05-14T11:21:14.918Z,3.67
2023-05-14T11:23:41.266Z,3.58
2023-05-14T11:26:07.857Z,3.42
2023-05-14T11:28:34.347Z,3.40
2023-05-14T11:31:01.197Z,3.38
2023-05-14T11:33:29.227Z,3.83
2023-05-14T11:35:56.046Z,3.42
2023-05-14T11:38:22.721Z,3.70
2023-05-14T11:40:56.879Z,3.70
2023-05-14T11:43:23.962Z,3.28
2023-05-14T11:45:54.298Z,3.35
2023-05-14T11:48:21.980Z,3.30
2023-05-14T11:50:49.840Z,3.42
2023-05-14T11:53:20.890Z,4.10
2023-05-14T11:55:47.900Z,3.40
2023-05-14T11:58:15.835Z,2.83
2023-05-14T12:00:44.863Z,3.45
2023-05-14T12:03:12.301Z,3.03
2023-05-14T12:05:39.593Z,3.07
2023-05-14T12:08:30.228Z,3.28
2023-05-14T12:10:59.501Z,3.17
2023-05-14T12:13:33.059Z,3.10
2023-05-14T12:16:02.165Z,2.88
2023-05-14T12:18:33.618Z,3.43
2023-05-14T12:21:04.678Z,3.20
2023-05-14T12:23:31.847Z,2.90
2023-05-14T12:26:03.448Z,3.30
2023-05-14T12:28:30.100Z,3.00
2023-05-14T12:30:57.428Z,2.93
2023-05-14T12:33:24.391Z,3.05
2023-05-14T12:35:51.013Z,2.97
2023-05-14T12:38:17.631Z,3.00
2023-05-14T12:40:44.199Z,3.45
2023-05-14T12:43:10.783Z,2.73
2023-05-14T12:45:37.264Z,3.30
2023-05-14T12:48:03.844Z,2.83
2023-05-14T12:50:30.443Z,2.90
2023-05-14T12:52:57.836Z,3.33
2023-05-14T12:55:24.480Z,3.10
2023-05-14T12:57:50.974Z,3.10
2023-05-14T13:00:17.734Z,3.17
2023-05-14T13:02:44.309Z,3.40
2023-05-14T13:05:11.823Z,3.05
2023-05-14T13:07:39.027Z,3.07
2023-05-14T13:10:06.089Z,3.47
2023-05-14T13:12:32.933Z,3.70
2023-05-14T13:15:00.732Z,3.17
2023-05-14T13:17:27.332Z,3.22
2023-05-14T13:19:53.755Z,3.00
2023-05-14T13:22:20.187Z,3.97
2023-05-14T13:24:46.798Z,3.88
2023-05-14T13:27:13.369Z,3.10
2023-05-14T13:29:40.016Z,3.30
2023-05-14T13:32:06.796Z,3.10
2023-05-14T13:34:33.188Z,3.00
2023-05-14T13:36:59.599Z,2.88
2023-05-14T13:39:27.289Z,2.60
2023-05-14T13:41:57.159Z,2.60
2023-05-14T13:44:24.343Z,3.00
2023-05-14T13:46:51.015Z,2.50
2023-05-14T13:49:17.676Z,2.78
2023-05-14T13:51:44.402Z,2.67
2023-05-14T13:54:10.845Z,2.97
2023-05-14T13:56:37.369Z,3.20
2023-05-14T13:59:06.482Z,2.80
2023-05-14T14:01:33.320Z,2.72
2023-05-14T14:04:00.442Z,2.83
2023-05-14T14:06:29.941Z,3.08
2023-05-14T14:08:56.409Z,2.70
2023-05-14T14:11:22.906Z,2.95
2023-05-14T14:13:49.359Z,3.00
2023-05-14T14:16:16.394Z,2.80
2023-05-14T14:18:43.264Z,2.80
2023-05-14T14:21:10.413Z,2.40
2023-05-14T14:23:36.945Z,2.65
2023-05-14T14:26:03.978Z,2.58
2023-05-14T14:28:30.714Z,2.50
2023-05-14T14:30:57.206Z,2.60
2023-05-14T14:33:23.659Z,2.23
2023-05-14T14:35:50.364Z,2.80
2023-05-14T14:38:16.755Z,2.47
2023-05-14T14:40:43.320Z,2.60
2023-05-14T14:43:09.813Z,2.35
2023-05-14T14:45:36.364Z,2.50
2023-05-14T14:48:33.975Z,2.45
2023-05-14T14:51:03.688Z,2.60
2023-05-14T14:53:31.087Z,2.42
2023-05-14T14:55:57.793Z,2.30
2023-05-14T14:58:24.875Z,2.50
2023-05-14T15:00:52.769Z,2.92
2023-05-14T15:03:19.625Z,2.45
2023-05-14T15:05:46.176Z,2.55
2023-05-14T15:08:12.905Z,2.60
2023-05-14T15:10:41.154Z,2.50
2023-05-14T15:13:08.435Z,2.95
2023-05-14T15:15:35.813Z,3.25
2023-05-14T15:18:03.690Z,2.95
2023-05-14T15:20:30.546Z,3.20
2023-05-14T15:22:57.078Z,2.50
2023-05-14T15:25:24.818Z,3.00
2023-05-14T15:27:51.690Z,3.30
2023-05-14T15:30:18.284Z,2.85
2023-05-14T15:32:45.486Z,3.15
2023-05-14T15:35:12.655Z,2.70
2023-05-14T15:37:41.400Z,2.50
2023-05-14T15:40:09.190Z,2.55
2023-05-14T15:42:41.974Z,2.72
2023-05-14T15:45:10.561Z,2.38
2023-05-14T15:47:37.449Z,3.00
2023-05-14T15:50:04.513Z,3.22
2023-05-14T15:52:31.151Z,2.70
2023-05-14T15:54:59.476Z,2.72
2023-05-14T15:57:26.389Z,2.72
2023-05-14T15:59:52.936Z,3.07
2023-05-14T16:02:19.450Z,2.90
2023-05-14T16:04:45.958Z,2.88
2023-05-14T16:07:13.268Z,3.10
2023-05-14T16:09:39.742Z,2.80
2023-05-14T16:12:06.809Z,2.27
2023-05-14T16:14:34.669Z,2.75
2023-05-14T16:17:02.062Z,2.95
2023-05-14T16:19:28.698Z,2.33
2023-05-14T16:21:55.124Z,2.80
2023-05-14T16:24:21.713Z,3.23
2023-05-14T16:26:48.247Z,3.00
2023-05-14T16:29:14.697Z,2.97
2023-05-14T16:31:41.245Z,3.10
2023-05-14T16:34:07.681Z,2.80
2023-05-14T16:36:34.316Z,2.63
2023-05-14T16:41:30.322Z,3.25
2023-05-14T16:43:57.306Z,2.55
2023-05-14T16:46:23.929Z,3.08
2023-05-14T16:48:50.853Z,2.60
2023-05-14T16:51:17.290Z,2.70
2023-05-14T16:53:43.892Z,2.33
2023-05-14T16:56:11.041Z,2.45
2023-05-14T16:58:37.598Z,2.92
2023-05-14T17:01:04.183Z,2.83
2023-05-14T17:03:30.720Z,2.70
2023-05-14T17:05:57.173Z,3.08
2023-05-14T17:08:23.823Z,3.58
2023-05-14T17:10:50.436Z,3.35
2023-05-14T17:13:17.085Z,3.43
2023-05-14T17:15:43.802Z,3.30
2023-05-14T17:18:12.124Z,3.05
2023-05-14T17:20:38.757Z,3.83
2023-05-14T17:23:05.449Z,3.55
2023-05-14T17:25:33.507Z,4.07
2023-05-14T17:28:00.434Z,3.90
2023-05-14T17:30:26.977Z,3.88
2023-05-14T17:32:53.716Z,4.10
2023-05-14T17:35:20.396Z,4.35
2023-05-14T17:37:46.834Z,4.23
2023-05-14T17:40:13.359Z,4.00
2023-05-14T17:42:39.779Z,4.03
2023-05-14T17:45:07.119Z,4.50
2023-05-14T17:47:44.392Z,4.20
2023-05-14T17:50:11.203Z,4.03
2023-05-14T17:52:37.807Z,3.53
2023-05-14T17:55:04.522Z,3.72
2023-05-14T17:57:31.051Z,4.10
2023-05-14T17:59:57.586Z,4.78
2023-05-14T18:02:24.105Z,3.67
2023-05-14T18:04:50.656Z,4.07
2023-05-14T18:07:18.701Z,4.07
2023-05-14T18:09:45.268Z,4.60
2023-05-14T18:12:11.641Z,3.35
2023-05-14T18:14:38.134Z,4.43
2023-05-14T18:17:04.910Z,4.05
2023-05-14T18:19:31.449Z,4.03
2023-05-14T18:21:57.833Z,3.97
2023-05-14T18:24:24.360Z,4.35
2023-05-14T18:26:50.885Z,3.60
2023-05-14T18:29:17.331Z,4.13
2023-05-14T18:31:44.004Z,4.13
2023-05-14T18:34:10.922Z,3.70
2023-05-14T18:36:37.800Z,3.80
2023-05-14T18:39:04.323Z,3.33
2023-05-14T18:41:30.866Z,4.10
2023-05-14T18:43:58.046Z,3.70
2023-05-14T18:46:24.924Z,3.10
2023-05-14T18:48:51.344Z,2.95
2023-05-14T18:51:17.953Z,3.17
2023-05-14T18:53:44.526Z,3.15
2023-05-14T18:56:11.388Z,3.70
2023-05-14T18:58:38.112Z,3.20
2023-05-14T19:01:04.826Z,3.00
2023-05-14T19:03:31.538Z,3.30
2023-05-14T19:05:58.200Z,3.42
2023-05-14T19:08:24.766Z,3.38
2023-05-14T19:10:51.765Z,2.92
2023-05-14T19:13:18.338Z,3.60
2023-05-14T19:15:51.404Z,3.57
2023-05-14T19:18:17.888Z,3.65
2023-05-14T19:20:46.232Z,4.45
2023-05-14T19:23:13.245Z,4.35
2023-05-14T19:25:40.949Z,4.03
2023-05-14T19:28:07.535Z,4.10
2023-05-14T19:30:34.000Z,4.30
2023-05-14T19:33:00.969Z,4.60
2023-05-14T19:35:27.575Z,4.40
2023-05-14T19:37:54.277Z,4.40
2023-05-14T19:40:20.914Z,4.27
2023-05-14T19:42:47.545Z,4.00
2023-05-14T19:45:14.137Z,4.22
2023-05-14T19:47:43.624Z,3.47
2023-05-14T19:50:10.681Z,3.30
2023-05-14T19:52:37.285Z,3.63
2023-05-14T19:55:04.956Z,3.42
2023-05-14T19:57:31.593Z,3.55
2023-05-14T19:59:58.237Z,3.42
2023-05-14T20:02:24.910Z,3.70
2023-05-14T20:04:51.640Z,3.30
2023-05-14T20:07:18.228Z,3.38
2023-05-14T20:09:44.728Z,3.38
2023-05-14T20:12:13.120Z,3.63
2023-05-14T20:14:41.082Z,3.78
2023-05-14T20:17:07.588Z,3.77
2023-05-14T20:19:34.819Z,4.30
2023-05-14T20:22:01.383Z,4.10
2023-05-14T20:24:28.548Z,3.85
2023-05-14T20:26:55.009Z,3.65
2023-05-14T20:29:21.588Z,3.87
2023-05-14T20:31:48.107Z,3.92
2023-05-14T20:34:14.718Z,4.10
2023-05-14T20:36:47.241Z,3.58
2023-05-14T20:39:15.991Z,4.10
2023-05-14T20:41:42.532Z,3.80
2023-05-14T20:44:08.896Z,3.90
2023-05-14T20:46:35.283Z,3.70
2023-05-14T20:49:02.335Z,3.88
2023-05-14T20:51:29.035Z,4.20
2023-05-14T20:53:55.414Z,3.57
2023-05-14T20:56:22.657Z,3.97
2023-05-14T20:58:49.197Z,3.70
2023-05-14T21:01:15.831Z,4.43
2023-05-14T21:03:42.570Z,3.65
2023-05-14T21:06:09.092Z,3.73
2023-05-14T21:08:37.572Z,4.25
2023-05-14T21:11:04.018Z,4.53
2023-05-14T21:13:31.702Z,3.25
2023-05-14T21:16:00.296Z,3.78
2023-05-14T21:18:30.705Z,3.70
2023-05-14T21:20:57.483Z,3.92
2023-05-14T21:23:24.292Z,3.85
2023-05-14T21:25:51.133Z,3.58
2023-05-14T21:28:17.635Z,3.67
2023-05-14T21:30:44.349Z,3.40
2023-05-14T21:33:10.829Z,4.18
2023-05-14T21:35:37.410Z,3.55
2023-05-14T21:38:04.054Z,3.80
2023-05-14T21:40:30.950Z,4.00
2023-05-14T21:42:57.463Z,3.77
2023-05-14T21:45:24.043Z,3.58
2023-05-14T21:47:50.848Z,3.67
2023-05-14T21:50:17.306Z,3.72
2023-05-14T21:52:43.710Z,3.72
2023-05-14T21:55:10.460Z,4.00
2023-05-14T21:57:36.973Z,3.75
2023-05-14T22:00:07.981Z,3.65
2023-05-14T22:02:34.404Z,4.10
2023-05-14T22:05:01.423Z,3.88
2023-05-14T22:07:28.473Z,4.00
2023-05-14T22:09:54.880Z,4.00
2023-05-14T22:12:21.353Z,4.05
2023-05-14T22:14:47.937Z,4.18
2023-05-14T22:17:14.558Z,4.28
2023-05-14T22:19:41.056Z,4.47
2023-05-14T22:22:07.447Z,4.72
2023-05-14T22:24:33.858Z,4.15
2023-05-14T22:27:00.414Z,4.43
2023-05-14T22:29:26.964Z,4.35
2023-05-14T22:31:53.400Z,4.20
2023-05-14T22:34:20.053Z,4.55
2023-05-14T22:36:46.493Z,4.32
2023-05-14T22:39:13.683Z,4.32
2023-05-14T22:41:40.389Z,4.85
2023-05-14T22:44:06.796Z,4.93
2023-05-14T22:46:33.385Z,4.97
2023-05-14T22:49:00.153Z,5.57
2023-05-14T22:51:26.598Z,5.05
2023-05-14T22:53:52.984Z,4.63
2023-05-14T22:56:20.511Z,5.40
2023-05-14T22:58:47.641Z,5.53
2023-05-14T23:01:14.154Z,4.82
2023-05-14T23:03:40.573Z,4.78
2023-05-14T23:06:07.327Z,4.65
2023-05-14T23:08:33.735Z,4.83
2023-05-14T23:11:00.153Z,4.55
2023-05-14T23:13:26.927Z,5.32
2023-05-14T23:15:53.377Z,5.20
2023-05-14T23:18:19.948Z,5.35
2023-05-14T23:20:46.424Z,5.13
2023-05-14T23:23:13.153Z,5.03
2023-05-14T23:25:39.714Z,6.00
2023-05-14T23:28:06.416Z,5.00
2023-05-14T23:30:32.872Z,5.40
2023-05-14T23:32:59.539Z,5.80
2023-05-14T23:35:26.303Z,5.55
2023-05-14T23:37:55.308Z,5.82
2023-05-14T23:40:22.036Z,5.88
2023-05-14T23:42:48.465Z,5.43
2023-05-14T23:45:15.078Z,5.40
2023-05-14T23:47:41.695Z,6.10
2023-05-14T23:50:08.547Z,5.13
2023-05-14T23:52:35.114Z,5.28
2023-05-14T23:55:01.799Z,5.60
2023-05-14T23:57:28.574Z,5.70
2023-05-14T23:59:55.462Z,5.70
